createdAt,value
2022-07-25T00:00:38.632Z,3.03
2022-07-25T00:03:10.754Z,2.97
2022-07-25T00:05:38.435Z,4.18
2022-07-25T00:08:06.173Z,3.40
2022-07-25T00:10:33.566Z,3.38
2022-07-25T00:13:00.931Z,3.28
2022-07-25T00:15:28.273Z,3.70
2022-07-25T00:17:55.656Z,3.67
2022-07-25T00:20:24.440Z,5.03
2022-07-25T00:22:51.804Z,3.45
2022-07-25T00:25:19.205Z,3.63
2022-07-25T00:27:46.590Z,3.17
2022-07-25T00:30:14.378Z,2.92
2022-07-25T00:32:41.746Z,3.28
2022-07-25T00:35:09.239Z,2.90
2022-07-25T00:37:37.941Z,3.17
2022-07-25T00:40:05.516Z,3.85
2022-07-25T00:42:33.113Z,2.83
2022-07-25T00:45:00.976Z,4.18
2022-07-25T00:47:28.311Z,3.65
2022-07-25T00:49:55.736Z,3.65
2022-07-25T00:52:23.845Z,3.45
2022-07-25T00:54:52.742Z,4.40
2022-07-25T00:57:20.076Z,4.65
2022-07-25T00:59:47.400Z,3.63
2022-07-25T01:02:14.799Z,3.38
2022-07-25T01:04:42.198Z,3.42
2022-07-25T01:07:09.553Z,3.20
2022-07-25T01:09:37.047Z,3.55
2022-07-25T01:12:06.340Z,3.70
2022-07-25T01:14:33.655Z,4.72
2022-07-25T01:17:01.073Z,3.85
2022-07-25T01:19:28.448Z,3.10
2022-07-25T01:21:57.145Z,3.50
2022-07-25T01:24:24.527Z,3.83
2022-07-25T01:26:51.869Z,3.72
2022-07-25T01:29:19.270Z,4.40
2022-07-25T01:31:46.640Z,4.00
2022-07-25T01:34:14.017Z,3.90
2022-07-25T01:36:41.361Z,5.35
2022-07-25T01:39:10.081Z,3.70
2022-07-25T01:41:37.422Z,4.25
2022-07-25T01:44:05.192Z,3.95
2022-07-25T01:46:32.851Z,3.72
2022-07-25T01:49:00.399Z,3.45
2022-07-25T01:51:27.775Z,4.05
2022-07-25T01:53:55.155Z,3.92
2022-07-25T01:56:23.887Z,3.60
2022-07-25T01:58:51.418Z,4.78
2022-07-25T02:01:19.454Z,3.88
2022-07-25T02:03:49.232Z,4.00
2022-07-25T02:06:16.606Z,5.07
2022-07-25T02:08:43.954Z,3.95
2022-07-25T02:11:11.437Z,4.65
2022-07-25T02:13:40.120Z,4.22
2022-07-25T02:16:07.525Z,4.25
2022-07-25T02:18:34.896Z,5.40
2022-07-25T02:21:02.324Z,4.38
2022-07-25T02:23:29.688Z,6.95
2022-07-25T02:25:57.043Z,4.15
2022-07-25T02:28:24.397Z,4.65
2022-07-25T02:30:53.162Z,4.53
2022-07-25T02:33:20.560Z,3.92
2022-07-25T02:35:47.928Z,4.43
2022-07-25T02:38:19.518Z,4.90
2022-07-25T02:40:47.019Z,4.82
2022-07-25T02:43:14.358Z,5.32
2022-07-25T02:45:43.050Z,4.60
2022-07-25T02:48:11.788Z,5.18
2022-07-25T02:50:39.264Z,4.65
2022-07-25T02:53:06.609Z,4.63
2022-07-25T02:55:33.963Z,4.97
2022-07-25T02:58:01.333Z,5.13
2022-07-25T03:00:29.198Z,4.80
2022-07-25T03:02:56.553Z,4.85
2022-07-25T03:05:25.255Z,5.18
2022-07-25T03:07:53.550Z,4.85
2022-07-25T03:10:20.903Z,5.32
2022-07-25T03:12:48.280Z,4.90
2022-07-25T03:15:15.645Z,5.47
2022-07-25T03:17:43.044Z,5.47
2022-07-25T03:20:10.546Z,4.97
2022-07-25T03:22:39.239Z,5.55
2022-07-25T03:25:15.349Z,5.40
2022-07-25T03:27:48.533Z,5.00
2022-07-25T03:30:15.876Z,5.63
2022-07-25T03:32:43.258Z,5.55
2022-07-25T03:35:10.844Z,5.35
2022-07-25T03:37:39.521Z,5.72
2022-07-25T03:40:07.981Z,5.40
2022-07-25T03:42:35.723Z,5.70
2022-07-25T03:45:03.226Z,5.93
2022-07-25T03:47:30.589Z,5.82
2022-07-25T03:49:57.955Z,5.80
2022-07-25T03:52:25.323Z,6.07
2022-07-25T03:54:54.039Z,5.80
2022-07-25T03:57:21.410Z,5.93
2022-07-25T03:59:48.767Z,6.10
2022-07-25T04:02:16.204Z,6.90
2022-07-25T04:04:43.574Z,5.97
2022-07-25T04:07:10.926Z,5.97
2022-07-25T04:09:38.254Z,6.15
2022-07-25T04:12:07.336Z,6.35
2022-07-25T04:14:34.654Z,6.72
2022-07-25T04:17:02.133Z,6.95
2022-07-25T04:19:29.651Z,5.82
2022-07-25T04:21:57.033Z,5.60
2022-07-25T04:24:24.400Z,6.55
2022-07-25T04:26:51.786Z,6.10
2022-07-25T04:29:20.496Z,6.38
2022-07-25T04:31:47.929Z,8.43
2022-07-25T04:34:15.333Z,7.63
2022-07-25T04:36:42.806Z,6.20
2022-07-25T04:39:10.156Z,5.97
2022-07-25T04:41:37.542Z,6.30
2022-07-25T04:44:07.414Z,6.82
2022-07-25T04:46:36.434Z,6.55
2022-07-25T04:49:03.875Z,6.78
2022-07-25T04:51:31.284Z,6.88
2022-07-25T04:53:58.669Z,7.47
2022-07-25T04:56:26.018Z,7.10
2022-07-25T04:58:53.374Z,5.95
2022-07-25T05:01:20.835Z,6.53
2022-07-25T05:03:49.855Z,5.80
2022-07-25T05:06:17.827Z,7.10
2022-07-25T05:08:45.170Z,7.00
2022-07-25T05:11:12.520Z,6.68
2022-07-25T05:13:39.912Z,6.45
2022-07-25T05:16:07.427Z,6.78
2022-07-25T05:18:35.104Z,7.75
2022-07-25T05:21:03.942Z,7.20
2022-07-25T05:23:31.315Z,7.65
2022-07-25T05:25:58.663Z,6.93
2022-07-25T05:28:26.043Z,7.25
2022-07-25T05:30:53.419Z,6.78
2022-07-25T05:33:20.744Z,7.22
2022-07-25T05:35:48.114Z,6.68
2022-07-25T05:38:16.804Z,7.35
2022-07-25T05:40:45.763Z,6.57
2022-07-25T05:43:13.143Z,7.10
2022-07-25T05:45:40.497Z,7.00
2022-07-25T05:48:07.874Z,7.03
2022-07-25T05:50:35.269Z,6.80
2022-07-25T05:53:02.620Z,7.18
2022-07-25T05:55:31.310Z,7.88
2022-07-25T05:57:58.664Z,6.57
2022-07-25T06:00:26.194Z,7.90
2022-07-25T06:02:53.658Z,7.40
2022-07-25T06:05:21.147Z,7.15
2022-07-25T06:07:48.533Z,6.75
2022-07-25T06:10:15.877Z,9.38
2022-07-25T06:12:44.582Z,8.45
2022-07-25T06:15:12.438Z,7.68
2022-07-25T06:17:47.146Z,7.68
2022-07-25T06:20:14.482Z,8.48
2022-07-25T06:22:41.849Z,7.32
2022-07-25T06:25:09.632Z,7.15
2022-07-25T06:27:37.981Z,7.43
2022-07-25T06:30:18.618Z,7.85
2022-07-25T06:32:46.867Z,7.78
2022-07-25T06:35:14.219Z,6.90
2022-07-25T06:37:41.544Z,7.82
2022-07-25T06:40:09.860Z,7.68
2022-07-25T06:42:38.745Z,7.68
2022-07-25T06:45:09.471Z,7.57
2022-07-25T06:47:36.834Z,7.20
2022-07-25T06:50:05.231Z,8.75
2022-07-25T06:52:34.994Z,7.60
2022-07-25T06:55:02.367Z,7.50
2022-07-25T06:57:29.710Z,7.63
2022-07-25T06:59:57.069Z,7.38
2022-07-25T07:02:25.767Z,9.23
2022-07-25T07:04:53.124Z,7.75
2022-07-25T07:07:20.500Z,7.32
2022-07-25T07:09:47.887Z,7.57
2022-07-25T07:12:15.249Z,8.00
2022-07-25T07:14:44.337Z,8.43
2022-07-25T07:17:11.805Z,7.90
2022-07-25T07:19:44.346Z,8.77
2022-07-25T07:22:11.743Z,9.38
2022-07-25T07:24:44.161Z,8.57
2022-07-25T07:27:12.561Z,7.75
2022-07-25T07:29:39.940Z,8.82
2022-07-25T07:32:07.664Z,7.13
2022-07-25T07:34:35.086Z,7.40
2022-07-25T07:37:03.780Z,7.13
2022-07-25T07:39:31.186Z,8.43
2022-07-25T07:41:58.684Z,7.35
2022-07-25T07:44:26.015Z,11.10
2022-07-25T07:46:53.517Z,7.10
2022-07-25T07:49:20.923Z,8.70
2022-07-25T07:51:48.343Z,7.72
2022-07-25T07:54:34.227Z,10.05
2022-07-25T07:57:01.593Z,7.45
2022-07-25T07:59:28.944Z,7.95
2022-07-25T08:01:56.813Z,7.28
2022-07-25T08:04:24.237Z,10.55
2022-07-25T08:06:51.621Z,8.98
2022-07-25T08:09:20.380Z,7.57
2022-07-25T08:11:47.741Z,6.90
2022-07-25T08:14:15.116Z,7.22
2022-07-25T08:16:42.550Z,7.97
2022-07-25T08:19:09.999Z,7.38
2022-07-25T08:21:37.402Z,7.20
2022-07-25T08:24:05.327Z,8.55
2022-07-25T08:26:37.041Z,6.95
2022-07-25T08:29:18.716Z,6.85
2022-07-25T08:31:47.450Z,6.75
2022-07-25T08:34:14.903Z,6.95
2022-07-25T08:36:42.643Z,6.85
2022-07-25T08:39:10.267Z,8.07
2022-07-25T08:41:40.383Z,6.93
2022-07-25T08:44:08.111Z,7.78
2022-07-25T08:46:35.798Z,6.57
2022-07-25T08:49:03.208Z,6.20
2022-07-25T08:51:30.585Z,9.27
2022-07-25T08:53:57.911Z,6.38
2022-07-25T08:56:25.805Z,6.93
2022-07-25T08:58:58.818Z,6.18
2022-07-25T09:01:28.297Z,6.60
2022-07-25T09:03:57.691Z,6.40
2022-07-25T09:06:25.054Z,6.20
2022-07-25T09:08:55.641Z,6.60
2022-07-25T09:11:29.727Z,6.80
2022-07-25T09:14:06.037Z,5.35
2022-07-25T09:16:35.221Z,5.60
2022-07-25T09:19:12.572Z,6.55
2022-07-25T09:21:40.811Z,5.65
2022-07-25T09:24:09.270Z,5.63
2022-07-25T09:26:43.897Z,5.03
2022-07-25T09:29:18.012Z,5.43
2022-07-25T09:31:46.027Z,5.10
2022-07-25T09:34:13.427Z,5.82
2022-07-25T09:36:43.310Z,4.53
2022-07-25T09:39:10.696Z,4.57
2022-07-25T09:41:38.616Z,7.78
2022-07-25T09:44:15.903Z,5.50
2022-07-25T09:46:44.660Z,4.38
2022-07-25T09:49:14.488Z,4.93
2022-07-25T09:51:42.072Z,4.80
2022-07-25T09:54:10.076Z,4.40
2022-07-25T09:56:37.647Z,4.88
2022-07-25T09:59:05.056Z,3.72
2022-07-25T10:01:35.413Z,3.78
2022-07-25T10:04:06.900Z,3.58
2022-07-25T10:06:35.863Z,4.03
2022-07-25T10:09:03.202Z,4.65
2022-07-25T10:11:31.408Z,3.15
2022-07-25T10:13:58.793Z,3.40
2022-07-25T10:16:26.568Z,3.70
2022-07-25T10:18:54.240Z,3.35
2022-07-25T10:21:28.057Z,3.92
2022-07-25T10:24:02.372Z,6.88
2022-07-25T10:26:29.820Z,3.20
2022-07-25T10:28:57.512Z,5.22
2022-07-25T10:31:26.746Z,3.63
2022-07-25T10:33:55.109Z,5.22
2022-07-25T10:36:23.854Z,3.22
2022-07-25T10:38:54.275Z,4.15
2022-07-25T10:41:25.866Z,3.00
2022-07-25T10:43:53.244Z,3.53
2022-07-25T10:46:22.859Z,3.03
2022-07-25T10:48:58.153Z,3.20
2022-07-25T10:51:28.445Z,2.53
2022-07-25T10:53:55.927Z,3.00
2022-07-25T10:56:23.665Z,2.47
2022-07-25T10:58:51.390Z,2.55
2022-07-25T11:01:22.463Z,2.33
2022-07-25T11:03:49.936Z,3.15
2022-07-25T11:06:17.473Z,2.78
2022-07-25T11:08:46.289Z,3.55
2022-07-25T11:11:14.736Z,5.38
2022-07-25T11:13:42.309Z,2.75
2022-07-25T11:16:09.943Z,2.83
2022-07-25T11:18:37.671Z,3.45
2022-07-25T11:21:06.609Z,2.55
2022-07-25T11:23:34.383Z,2.75
2022-07-25T11:26:06.922Z,2.28
2022-07-25T11:28:41.026Z,2.65
2022-07-25T11:31:08.406Z,2.60
2022-07-25T11:33:38.598Z,2.50
2022-07-25T11:36:06.548Z,2.03
2022-07-25T11:38:34.236Z,2.75
2022-07-25T11:41:01.710Z,2.80
2022-07-25T11:43:30.374Z,2.85
2022-07-25T11:45:58.538Z,1.83
2022-07-25T11:48:31.110Z,2.55
2022-07-25T11:50:58.471Z,4.68
2022-07-25T11:53:26.028Z,4.00
2022-07-25T11:55:53.374Z,2.70
2022-07-25T11:58:20.722Z,2.85
2022-07-25T12:00:49.971Z,2.05
2022-07-25T12:03:20.434Z,2.47
2022-07-25T12:05:48.188Z,2.90
2022-07-25T12:08:15.861Z,4.40
2022-07-25T12:10:43.682Z,3.40
2022-07-25T12:13:11.126Z,2.88
2022-07-25T12:15:39.041Z,2.97
2022-07-25T12:18:09.354Z,4.15
2022-07-25T12:20:37.046Z,3.10
2022-07-25T12:23:05.106Z,2.97
2022-07-25T12:25:32.449Z,4.50
2022-07-25T12:27:59.953Z,3.83
2022-07-25T12:30:27.451Z,2.55
2022-07-25T12:32:54.916Z,8.50
2022-07-25T12:35:23.620Z,2.80
2022-07-25T12:37:51.171Z,3.80
2022-07-25T12:40:18.546Z,3.90
2022-07-25T12:42:46.053Z,3.28
2022-07-25T12:45:14.634Z,4.18
2022-07-25T12:47:42.028Z,4.93
2022-07-25T12:50:09.801Z,2.63
2022-07-25T12:52:38.958Z,3.38
2022-07-25T12:55:06.927Z,2.97
2022-07-25T12:57:34.926Z,3.20
2022-07-25T13:00:02.301Z,3.22
2022-07-25T13:02:29.745Z,3.58
2022-07-25T13:04:57.199Z,5.18
2022-07-25T13:07:24.517Z,5.55
2022-07-25T13:09:53.183Z,4.55
2022-07-25T13:12:20.691Z,3.25
2022-07-25T13:14:48.664Z,3.10
2022-07-25T13:17:16.060Z,3.67
2022-07-25T13:19:43.413Z,5.22
2022-07-25T13:22:10.812Z,5.18
2022-07-25T13:24:39.243Z,2.67
2022-07-25T13:27:07.968Z,4.63
2022-07-25T13:29:35.316Z,3.00
2022-07-25T13:32:03.417Z,3.05
2022-07-25T13:34:31.734Z,4.95
2022-07-25T13:36:59.334Z,4.63
2022-07-25T13:39:27.125Z,4.28
2022-07-25T13:41:54.512Z,4.15
2022-07-25T13:44:23.181Z,5.13
2022-07-25T13:46:50.762Z,5.97
2022-07-25T13:49:18.303Z,4.72
2022-07-25T13:51:45.736Z,6.95
2022-07-25T13:54:13.136Z,3.60
2022-07-25T13:56:41.414Z,6.53
2022-07-25T13:59:09.496Z,5.10
2022-07-25T14:01:38.779Z,4.15
2022-07-25T14:04:06.344Z,5.38
2022-07-25T14:06:34.269Z,8.07
2022-07-25T14:09:01.632Z,6.85
2022-07-25T14:11:30.835Z,5.00
2022-07-25T14:13:58.457Z,7.07
2022-07-25T14:16:26.027Z,6.72
2022-07-25T14:18:55.702Z,7.82
2022-07-25T14:21:23.126Z,5.70
2022-07-25T14:23:50.591Z,3.72
2022-07-25T14:26:18.001Z,6.10
2022-07-25T14:28:45.366Z,6.85
2022-07-25T14:31:12.986Z,6.70
2022-07-25T14:33:40.742Z,4.75
2022-07-25T14:36:10.174Z,5.10
2022-07-25T14:38:37.569Z,4.47
2022-07-25T14:41:09.188Z,5.68
2022-07-25T14:43:39.596Z,4.93
2022-07-25T14:46:07.994Z,5.10
2022-07-25T14:48:36.085Z,6.18
2022-07-25T14:51:03.520Z,5.78
2022-07-25T14:53:32.484Z,7.60
2022-07-25T14:56:00.837Z,6.97
2022-07-25T14:58:28.205Z,6.28
2022-07-25T15:00:55.622Z,6.15
2022-07-25T15:03:23.150Z,4.55
2022-07-25T15:05:50.547Z,5.07
2022-07-25T15:08:17.913Z,6.82
2022-07-25T15:10:46.906Z,6.22
2022-07-25T15:13:30.471Z,2.97
2022-07-25T15:15:58.715Z,5.93
2022-07-25T15:18:26.184Z,6.30
2022-07-25T15:20:53.647Z,9.80
2022-07-25T15:23:24.500Z,7.20
2022-07-25T15:26:08.672Z,4.15
2022-07-25T15:28:36.436Z,5.47
2022-07-25T15:31:03.860Z,4.20
2022-07-25T15:33:31.349Z,4.28
2022-07-25T15:35:58.686Z,6.38
2022-07-25T15:38:26.038Z,6.93
2022-07-25T15:40:54.702Z,5.82
2022-07-25T15:43:22.065Z,4.72
2022-07-25T15:45:49.447Z,4.75
2022-07-25T15:48:17.119Z,5.53
2022-07-25T15:50:44.803Z,7.53
2022-07-25T15:53:12.278Z,6.80
2022-07-25T15:55:39.667Z,4.70
2022-07-25T15:58:09.449Z,4.70
2022-07-25T16:00:36.954Z,7.43
2022-07-25T16:03:04.428Z,5.93
2022-07-25T16:05:31.847Z,5.85
2022-07-25T16:08:00.844Z,7.35
2022-07-25T16:10:28.259Z,6.55
2022-07-25T16:12:55.598Z,4.07
2022-07-25T16:15:25.061Z,3.92
2022-07-25T16:18:00.153Z,6.90
2022-07-25T16:20:29.373Z,4.63
2022-07-25T16:22:57.766Z,7.88
2022-07-25T16:25:25.152Z,5.57
2022-07-25T16:27:52.548Z,5.93
2022-07-25T16:30:20.108Z,9.57
2022-07-25T16:32:48.795Z,3.80
2022-07-25T16:35:16.155Z,5.97
2022-07-25T16:37:43.534Z,5.45
2022-07-25T16:40:11.054Z,2.95
2022-07-25T16:42:38.424Z,5.00
2022-07-25T16:45:06.093Z,4.68
2022-07-25T16:47:33.472Z,6.60
2022-07-25T16:50:02.177Z,4.22
2022-07-25T16:52:29.510Z,7.45
2022-07-25T16:54:56.857Z,4.78
2022-07-25T16:57:24.952Z,4.07
2022-07-25T16:59:53.170Z,5.90
2022-07-25T17:02:20.626Z,4.07
2022-07-25T17:04:52.430Z,7.30
2022-07-25T17:07:21.239Z,13.10
2022-07-25T17:09:48.627Z,7.22
2022-07-25T17:12:16.487Z,4.80
2022-07-25T17:14:43.882Z,3.85
2022-07-25T17:17:11.261Z,9.18
2022-07-25T17:19:39.822Z,6.95
2022-07-25T17:22:07.349Z,6.32
2022-07-25T17:24:36.066Z,5.22
2022-07-25T17:27:03.442Z,4.65
2022-07-25T17:29:30.810Z,5.63
2022-07-25T17:31:58.369Z,3.88
2022-07-25T17:34:26.700Z,7.93
2022-07-25T17:36:54.070Z,7.35
2022-07-25T17:39:21.463Z,4.40
2022-07-25T17:41:51.878Z,8.98
2022-07-25T17:44:20.002Z,12.85
2022-07-25T17:46:49.879Z,7.75
2022-07-25T17:49:17.406Z,2.97
2022-07-25T17:51:44.879Z,3.78
2022-07-25T17:54:12.274Z,5.80
2022-07-25T17:56:39.651Z,5.22
2022-07-25T17:59:09.090Z,8.02
2022-07-25T18:01:36.616Z,6.65
2022-07-25T18:04:04.247Z,6.03
2022-07-25T18:06:31.791Z,8.30
2022-07-25T18:08:59.138Z,5.93
2022-07-25T18:11:27.649Z,4.78
2022-07-25T18:13:54.995Z,6.00
2022-07-25T18:16:23.731Z,3.58
2022-07-25T18:18:51.135Z,3.67
2022-07-25T18:21:18.526Z,6.32
2022-07-25T18:23:45.889Z,4.03
2022-07-25T18:26:13.257Z,5.40
2022-07-25T18:28:40.685Z,4.55
2022-07-25T18:31:08.632Z,6.57
2022-07-25T18:33:37.393Z,5.72
2022-07-25T18:36:07.622Z,2.95
2022-07-25T18:38:35.316Z,3.40
2022-07-25T18:41:27.527Z,3.00
2022-07-25T18:43:50.048Z,5.38
2022-07-25T18:46:18.446Z,3.50
2022-07-25T18:48:47.361Z,3.58
2022-07-25T18:51:14.752Z,2.67
2022-07-25T18:53:47.330Z,2.58
2022-07-25T18:56:15.687Z,3.13
2022-07-25T18:58:43.042Z,4.30
2022-07-25T19:01:10.519Z,3.92
2022-07-25T19:03:38.055Z,3.45
2022-07-25T19:06:07.762Z,4.65
2022-07-25T19:08:35.615Z,2.80
2022-07-25T19:11:02.996Z,3.30
2022-07-25T19:13:49.076Z,2.28
2022-07-25T19:16:17.239Z,5.13
2022-07-25T19:18:45.158Z,2.97
2022-07-25T19:21:13.877Z,2.15
2022-07-25T19:23:41.243Z,3.42
2022-07-25T19:26:08.607Z,2.97
2022-07-25T19:28:36.153Z,3.83
2022-07-25T19:31:03.565Z,3.42
2022-07-25T19:33:34.676Z,3.42
2022-07-25T19:36:03.939Z,4.43
2022-07-25T19:38:32.676Z,3.53
2022-07-25T19:41:00.715Z,3.50
2022-07-25T19:43:28.147Z,5.07
2022-07-25T19:45:55.589Z,4.50
2022-07-25T19:48:24.006Z,3.08
2022-07-25T19:50:53.005Z,8.52
2022-07-25T19:53:23.148Z,2.55
2022-07-25T19:55:54.164Z,4.70
2022-07-25T19:58:21.508Z,9.00
2022-07-25T20:00:48.870Z,7.13
2022-07-25T20:03:16.342Z,3.25
2022-07-25T20:05:51.066Z,3.10
2022-07-25T20:08:18.783Z,4.65
2022-07-25T20:10:47.276Z,4.45
2022-07-25T20:13:16.001Z,3.03
2022-07-25T20:15:43.383Z,5.88
2022-07-25T20:18:11.630Z,2.28
2022-07-25T20:20:41.220Z,4.22
2022-07-25T20:23:08.603Z,7.72
2022-07-25T20:25:35.964Z,6.28
2022-07-25T20:28:03.357Z,4.18
2022-07-25T20:30:35.007Z,5.35
2022-07-25T20:33:05.531Z,6.07
2022-07-25T20:35:36.876Z,3.97
2022-07-25T20:38:08.989Z,7.10
2022-07-25T20:40:37.862Z,2.67
2022-07-25T20:43:06.257Z,4.03
2022-07-25T20:45:35.904Z,4.03
2022-07-25T20:48:03.327Z,6.18
2022-07-25T20:50:30.733Z,7.88
2022-07-25T20:52:58.292Z,8.52
2022-07-25T20:55:28.302Z,6.68
2022-07-25T20:57:55.690Z,6.90
2022-07-25T21:00:25.618Z,8.20
2022-07-25T21:02:54.316Z,4.80
2022-07-25T21:05:21.877Z,6.45
2022-07-25T21:07:49.245Z,6.25
2022-07-25T21:10:16.623Z,5.80
2022-07-25T21:12:45.157Z,4.72
2022-07-25T21:15:12.877Z,5.78
2022-07-25T21:17:41.518Z,9.50
2022-07-25T21:20:11.515Z,6.30
2022-07-25T21:22:38.885Z,4.80
2022-07-25T21:25:07.010Z,5.05
2022-07-25T21:27:34.440Z,5.35
2022-07-25T21:30:01.793Z,5.25
2022-07-25T21:32:29.178Z,5.47
2022-07-25T21:34:56.539Z,6.18
2022-07-25T21:37:25.241Z,5.00
2022-07-25T21:39:52.623Z,6.45
2022-07-25T21:42:19.996Z,7.90
2022-07-25T21:44:47.340Z,7.53
2022-07-25T21:47:14.743Z,6.43
2022-07-25T21:49:59.698Z,5.75
2022-07-25T21:52:30.187Z,4.82
2022-07-25T21:55:02.132Z,6.80
2022-07-25T21:57:29.517Z,6.22
2022-07-25T21:59:56.939Z,7.97
2022-07-25T22:02:24.329Z,6.10
2022-07-25T22:04:51.699Z,4.55
2022-07-25T22:07:19.137Z,5.97
2022-07-25T22:09:47.878Z,6.07
2022-07-25T22:12:15.364Z,11.02
2022-07-25T22:14:42.755Z,4.53
2022-07-25T22:17:10.174Z,7.43
2022-07-25T22:19:37.526Z,8.60
2022-07-25T22:22:05.699Z,5.60
2022-07-25T22:24:33.078Z,11.57
2022-07-25T22:27:01.760Z,10.45
2022-07-25T22:29:29.116Z,5.93
2022-07-25T22:31:56.595Z,10.57
2022-07-25T22:34:24.042Z,7.90
2022-07-25T22:36:51.404Z,7.82
2022-07-25T22:39:18.743Z,9.70
2022-07-25T22:41:46.771Z,7.40
2022-07-25T22:44:15.566Z,7.60
2022-07-25T22:46:42.920Z,9.95
2022-07-25T22:49:10.669Z,9.55
2022-07-25T22:51:38.347Z,5.65
2022-07-25T22:54:05.793Z,6.40
2022-07-25T22:56:33.169Z,5.68
2022-07-25T22:59:00.554Z,5.18
2022-07-25T23:01:29.288Z,9.30
2022-07-25T23:03:56.737Z,4.90
2022-07-25T23:06:24.194Z,8.27
2022-07-25T23:08:51.625Z,9.00
2022-07-25T23:11:19.041Z,7.82
2022-07-25T23:13:46.435Z,9.93
2022-07-25T23:16:13.944Z,4.88
2022-07-25T23:18:42.737Z,7.90
2022-07-25T23:21:10.325Z,9.10
2022-07-25T23:23:37.748Z,7.88
2022-07-25T23:26:05.152Z,8.18
2022-07-25T23:28:32.577Z,10.50
2022-07-25T23:31:00.001Z,10.00
2022-07-25T23:33:29.015Z,7.10
2022-07-25T23:35:58.624Z,10.10
2022-07-25T23:38:26.103Z,11.13
2022-07-25T23:40:54.821Z,8.38
2022-07-25T23:43:52.183Z,8.52
2022-07-25T23:46:09.632Z,5.43
2022-07-25T23:48:37.741Z,9.23
2022-07-25T23:51:06.741Z,7.85
2022-07-25T23:53:34.462Z,6.97
2022-07-25T23:56:01.882Z,10.90
2022-07-25T23:58:29.299Z,6.82
